Aviation Digital Data Service (ADDS)

Output produced by METARs form (2011 UTC 23 January 2019)
found at http://www.aviationweather.gov/metar/data/
 
METAR text: GGOV 232000Z 36005KT CAVOK 26/05 Q1010 NOSIG
Conditions at: GGOV (BISSAU (CIV/MIL), GW) observed 2000 UTC 23 January 2019
Temperature: 26.0°C (79°F)
Dewpoint: 5.0°C (41°F) [RH = 26%]
Pressure (altimeter): 29.82 inches Hg (1010.0 mb)
Winds: from the N (360 degrees) at 6 MPH (5 knots; 2.6 m/s)
Visibility: 6 or more miles (10+ km)
Ceiling: ceiling and visibility are OK
Clouds: unknown
Weather: no significant weather observed at this time

METAR text: GGOV 231900Z 02006KT CAVOK 27/05 Q1010 NOSIG
Conditions at: GGOV (BISSAU (CIV/MIL), GW) observed 1900 UTC 23 January 2019
Temperature: 27.0°C (81°F)
Dewpoint: 5.0°C (41°F) [RH = 24%]
Pressure (altimeter): 29.82 inches Hg (1010.0 mb)
Winds: from the NNE (20 degrees) at 7 MPH (6 knots; 3.1 m/s)
Visibility: 6 or more miles (10+ km)
Ceiling: ceiling and visibility are OK
Clouds: unknown
Weather: no significant weather observed at this time

METAR text: GGOV 231800Z 36008KT CAVOK 29/03 Q1010 NOSIG
Conditions at: GGOV (BISSAU (CIV/MIL), GW) observed 1800 UTC 23 January 2019
Temperature: 29.0°C (84°F)
Dewpoint: 3.0°C (37°F) [RH = 19%]
Pressure (altimeter): 29.82 inches Hg (1010.0 mb)
Winds: from the N (360 degrees) at 9 MPH (8 knots; 4.1 m/s)
Visibility: 6 or more miles (10+ km)
Ceiling: ceiling and visibility are OK
Clouds: unknown
Weather: no significant weather observed at this time

METAR text: GGOV 231700Z 01010KT CAVOK 30/04 Q1010 NOSIG
Conditions at: GGOV (BISSAU (CIV/MIL), GW) observed 1700 UTC 23 January 2019
Temperature: 30.0°C (86°F)
Dewpoint: 4.0°C (39°F) [RH = 19%]
Pressure (altimeter): 29.82 inches Hg (1010.0 mb)
Winds: from the N (10 degrees) at 12 MPH (10 knots; 5.1 m/s)
Visibility: 6 or more miles (10+ km)
Ceiling: ceiling and visibility are OK
Clouds: unknown
Weather: no significant weather observed at this time

METAR text: GGOV 231600Z 01010KT CAVOK 31/05 Q1010 NOSIG
Conditions at: GGOV (BISSAU (CIV/MIL), GW) observed 1600 UTC 23 January 2019
Temperature: 31.0°C (88°F)
Dewpoint: 5.0°C (41°F) [RH = 19%]
Pressure (altimeter): 29.82 inches Hg (1010.0 mb)
Winds: from the N (10 degrees) at 12 MPH (10 knots; 5.1 m/s)
Visibility: 6 or more miles (10+ km)
Ceiling: ceiling and visibility are OK
Clouds: unknown
Weather: no significant weather observed at this time

METAR text: GGOV 231500Z 36008KT CAVOK 31/02 Q1010 NOSIG
Conditions at: GGOV (BISSAU (CIV/MIL), GW) observed 1500 UTC 23 January 2019
Temperature: 31.0°C (88°F)
Dewpoint: 2.0°C (36°F) [RH = 16%]
Pressure (altimeter): 29.82 inches Hg (1010.0 mb)
Winds: from the N (360 degrees) at 9 MPH (8 knots; 4.1 m/s)
Visibility: 6 or more miles (10+ km)
Ceiling: ceiling and visibility are OK
Clouds: unknown
Weather: no significant weather observed at this time

METAR text: GGOV 231400Z 09009KT CAVOK 31/01 Q1012 NOSIG
Conditions at: GGOV (BISSAU (CIV/MIL), GW) observed 1400 UTC 23 January 2019
Temperature: 31.0°C (88°F)
Dewpoint: 1.0°C (34°F) [RH = 15%]
Pressure (altimeter): 29.88 inches Hg (1012.0 mb)
Winds: from the E (90 degrees) at 10 MPH (9 knots; 4.6 m/s)
Visibility: 6 or more miles (10+ km)
Ceiling: ceiling and visibility are OK
Clouds: unknown
Weather: no significant weather observed at this time

METAR text: GGOV 231300Z 09009KT CAVOK 29/03 Q1013 NOSIG
Conditions at: GGOV (BISSAU (CIV/MIL), GW) observed 1300 UTC 23 January 2019
Temperature: 29.0°C (84°F)
Dewpoint: 3.0°C (37°F) [RH = 19%]
Pressure (altimeter): 29.91 inches Hg (1013.0 mb)
Winds: from the E (90 degrees) at 10 MPH (9 knots; 4.6 m/s)
Visibility: 6 or more miles (10+ km)
Ceiling: ceiling and visibility are OK
Clouds: unknown
Weather: no significant weather observed at this time

METAR text: GGOV 231200Z 09010KT CAVOK 28/M00 Q1014 NOSIG
Conditions at: GGOV (BISSAU (CIV/MIL), GW) observed 1200 UTC 23 January 2019
Temperature: 28.0°C (82°F)
Dewpoint: 0.0°C (32°F) [RH = 16%]
Pressure (altimeter): 29.94 inches Hg (1014.0 mb)
Winds: from the E (90 degrees) at 12 MPH (10 knots; 5.1 m/s)
Visibility: 6 or more miles (10+ km)
Ceiling: ceiling and visibility are OK
Clouds: unknown
Weather: no significant weather observed at this time

METAR text: GGOV 231100Z 09012KT CAVOK 25/00 Q1014 NOSIG
Conditions at: GGOV (BISSAU (CIV/MIL), GW) observed 1100 UTC 23 January 2019
Temperature: 25.0°C (77°F)
Dewpoint: 0.0°C (32°F) [RH = 19%]
Pressure (altimeter): 29.94 inches Hg (1014.0 mb)
Winds: from the E (90 degrees) at 14 MPH (12 knots; 6.2 m/s)
Visibility: 6 or more miles (10+ km)
Ceiling: ceiling and visibility are OK
Clouds: unknown
Weather: no significant weather observed at this time

METAR text: GGOV 231000Z 08011KT CAVOK 22/05 Q1014 NOSIG
Conditions at: GGOV (BISSAU (CIV/MIL), GW) observed 1000 UTC 23 January 2019
Temperature: 22.0°C (72°F)
Dewpoint: 5.0°C (41°F) [RH = 33%]
Pressure (altimeter): 29.94 inches Hg (1014.0 mb)
Winds: from the E (80 degrees) at 13 MPH (11 knots; 5.7 m/s)
Visibility: 6 or more miles (10+ km)
Ceiling: ceiling and visibility are OK
Clouds: unknown
Weather: no significant weather observed at this time

METAR text: GGOV 230900Z 02011KT CAVOK 18/02 Q1013 NOSIG
Conditions at: GGOV (BISSAU (CIV/MIL), GW) observed 0900 UTC 23 January 2019
Temperature: 18.0°C (64°F)
Dewpoint: 2.0°C (36°F) [RH = 34%]
Pressure (altimeter): 29.91 inches Hg (1013.0 mb)
Winds: from the NNE (20 degrees) at 13 MPH (11 knots; 5.7 m/s)
Visibility: 6 or more miles (10+ km)
Ceiling: ceiling and visibility are OK
Clouds: unknown
Weather: no significant weather observed at this time

METAR text: GGOV 230800Z 02007KT CAVOK 16/02 Q1013 NOSIG
Conditions at: GGOV (BISSAU (CIV/MIL), GW) observed 0800 UTC 23 January 2019
Temperature: 16.0°C (61°F)
Dewpoint: 2.0°C (36°F) [RH = 39%]
Pressure (altimeter): 29.91 inches Hg (1013.0 mb)
Winds: from the NNE (20 degrees) at 8 MPH (7 knots; 3.6 m/s)
Visibility: 6 or more miles (10+ km)
Ceiling: ceiling and visibility are OK
Clouds: unknown
Weather: no significant weather observed at this time

METAR text: GGOV 230100Z 04006KT CAVOK 22/02 Q1012 NOSIG
Conditions at: GGOV (BISSAU (CIV/MIL), GW) observed 0100 UTC 23 January 2019
Temperature: 22.0°C (72°F)
Dewpoint: 2.0°C (36°F) [RH = 27%]
Pressure (altimeter): 29.88 inches Hg (1012.0 mb)
Winds: from the NE (40 degrees) at 7 MPH (6 knots; 3.1 m/s)
Visibility: 6 or more miles (10+ km)
Ceiling: ceiling and visibility are OK
Clouds: unknown
Weather: no significant weather observed at this time

METAR text: GGOV 230000Z 04004KT CAVOK 22/03 Q1013 NOSIG
Conditions at: GGOV (BISSAU (CIV/MIL), GW) observed 0000 UTC 23 January 2019
Temperature: 22.0°C (72°F)
Dewpoint: 3.0°C (37°F) [RH = 29%]
Pressure (altimeter): 29.91 inches Hg (1013.0 mb)
Winds: from the NE (40 degrees) at 5 MPH (4 knots; 2.1 m/s)
Visibility: 6 or more miles (10+ km)
Ceiling: ceiling and visibility are OK
Clouds: unknown
Weather: no significant weather observed at this time

METAR text: GGOV 222300Z 04006KT CAVOK 23/03 Q1013 NOSIG
Conditions at: GGOV (BISSAU (CIV/MIL), GW) observed 2300 UTC 22 January 2019
Temperature: 23.0°C (73°F)
Dewpoint: 3.0°C (37°F) [RH = 27%]
Pressure (altimeter): 29.91 inches Hg (1013.0 mb)
Winds: from the NE (40 degrees) at 7 MPH (6 knots; 3.1 m/s)
Visibility: 6 or more miles (10+ km)
Ceiling: ceiling and visibility are OK
Clouds: unknown
Weather: no significant weather observed at this time

METAR text: GGOV 222200Z 04005KT CAVOK 22/03 Q1013 NOSIG
Conditions at: GGOV (BISSAU (CIV/MIL), GW) observed 2200 UTC 22 January 2019
Temperature: 22.0°C (72°F)
Dewpoint: 3.0°C (37°F) [RH = 29%]
Pressure (altimeter): 29.91 inches Hg (1013.0 mb)
Winds: from the NE (40 degrees) at 6 MPH (5 knots; 2.6 m/s)
Visibility: 6 or more miles (10+ km)
Ceiling: ceiling and visibility are OK
Clouds: unknown
Weather: no significant weather observed at this time

METAR text: GGOV 222100Z 04006KT CAVOK 23/03 Q1012 NOSIG
Conditions at: GGOV (BISSAU (CIV/MIL), GW) observed 2100 UTC 22 January 2019
Temperature: 23.0°C (73°F)
Dewpoint: 3.0°C (37°F) [RH = 27%]
Pressure (altimeter): 29.88 inches Hg (1012.0 mb)
Winds: from the NE (40 degrees) at 7 MPH (6 knots; 3.1 m/s)
Visibility: 6 or more miles (10+ km)
Ceiling: ceiling and visibility are OK
Clouds: unknown
Weather: no significant weather observed at this time

METAR text: GGOV 222000Z 03005KT CAVOK 25/03 Q1012 NOSIG
Conditions at: GGOV (BISSAU (CIV/MIL), GW) observed 2000 UTC 22 January 2019
Temperature: 25.0°C (77°F)
Dewpoint: 3.0°C (37°F) [RH = 24%]
Pressure (altimeter): 29.88 inches Hg (1012.0 mb)
Winds: from the NNE (30 degrees) at 6 MPH (5 knots; 2.6 m/s)
Visibility: 6 or more miles (10+ km)
Ceiling: ceiling and visibility are OK
Clouds: unknown
Weather: no significant weather observed at this time

METAR text: GGOV 221900Z 05006KT CAVOK 27/03 Q1011 NOSIG
Conditions at: GGOV (BISSAU (CIV/MIL), GW) observed 1900 UTC 22 January 2019
Temperature: 27.0°C (81°F)
Dewpoint: 3.0°C (37°F) [RH = 21%]
Pressure (altimeter): 29.85 inches Hg (1011.0 mb)
Winds: from the NE (50 degrees) at 7 MPH (6 knots; 3.1 m/s)
Visibility: 6 or more miles (10+ km)
Ceiling: ceiling and visibility are OK
Clouds: unknown
Weather: no significant weather observed at this time

METAR text: GGOV 221800Z 08008KT CAVOK 31/M03 Q1010 NOSIG
Conditions at: GGOV (BISSAU (CIV/MIL), GW) observed 1800 UTC 22 January 2019
Temperature: 31.0°C (88°F)
Dewpoint: -3.0°C (27°F) [RH = 11%]
Pressure (altimeter): 29.82 inches Hg (1010.0 mb)
Winds: from the E (80 degrees) at 9 MPH (8 knots; 4.1 m/s)
Visibility: 6 or more miles (10+ km)
Ceiling: ceiling and visibility are OK
Clouds: unknown
Weather: no significant weather observed at this time

METAR text: GGOV 221700Z 08010KT CAVOK 32/M02 Q1010 NOSIG
Conditions at: GGOV (BISSAU (CIV/MIL), GW) observed 1700 UTC 22 January 2019
Temperature: 32.0°C (90°F)
Dewpoint: -2.0°C (28°F) [RH = 11%]
Pressure (altimeter): 29.82 inches Hg (1010.0 mb)
Winds: from the E (80 degrees) at 12 MPH (10 knots; 5.1 m/s)
Visibility: 6 or more miles (10+ km)
Ceiling: ceiling and visibility are OK
Clouds: unknown
Weather: no significant weather observed at this time

METAR text: GGOV 221500Z 04010KT CAVOK 31/M02 Q1011 NOSIG
Conditions at: GGOV (BISSAU (CIV/MIL), GW) observed 1500 UTC 22 January 2019
Temperature: 31.0°C (88°F)
Dewpoint: -2.0°C (28°F) [RH = 12%]
Pressure (altimeter): 29.85 inches Hg (1011.0 mb)
Winds: from the NE (40 degrees) at 12 MPH (10 knots; 5.1 m/s)
Visibility: 6 or more miles (10+ km)
Ceiling: ceiling and visibility are OK
Clouds: unknown
Weather: no significant weather observed at this time

METAR text: GGOV 221400Z 02013KT CAVOK 30/00 Q1012 NOSIG
Conditions at: GGOV (BISSAU (CIV/MIL), GW) observed 1400 UTC 22 January 2019
Temperature: 30.0°C (86°F)
Dewpoint: 0.0°C (32°F) [RH = 14%]
Pressure (altimeter): 29.88 inches Hg (1012.0 mb)
Winds: from the NNE (20 degrees) at 15 MPH (13 knots; 6.7 m/s)
Visibility: 6 or more miles (10+ km)
Ceiling: ceiling and visibility are OK
Clouds: unknown
Weather: no significant weather observed at this time

METAR text: GGOV 221300Z 06013KT CAVOK 29/M04 Q1013 NOSIG
Conditions at: GGOV (BISSAU (CIV/MIL), GW) observed 1300 UTC 22 January 2019
Temperature: 29.0°C (84°F)
Dewpoint: -4.0°C (25°F) [RH = 11%]
Pressure (altimeter): 29.91 inches Hg (1013.0 mb)
Winds: from the ENE (60 degrees) at 15 MPH (13 knots; 6.7 m/s)
Visibility: 6 or more miles (10+ km)
Ceiling: ceiling and visibility are OK
Clouds: unknown
Weather: no significant weather observed at this time

METAR text: GGOV 221200Z 09012KT CAVOK 27/M04 Q1014 NOSIG
Conditions at: GGOV (BISSAU (CIV/MIL), GW) observed 1200 UTC 22 January 2019
Temperature: 27.0°C (81°F)
Dewpoint: -4.0°C (25°F) [RH = 13%]
Pressure (altimeter): 29.94 inches Hg (1014.0 mb)
Winds: from the E (90 degrees) at 14 MPH (12 knots; 6.2 m/s)
Visibility: 6 or more miles (10+ km)
Ceiling: ceiling and visibility are OK
Clouds: unknown
Weather: no significant weather observed at this time

METAR text: GGOV 221100Z 09012KT CAVOK 25/04 Q1015 NOSIG
Conditions at: GGOV (BISSAU (CIV/MIL), GW) observed 1100 UTC 22 January 2019
Temperature: 25.0°C (77°F)
Dewpoint: 4.0°C (39°F) [RH = 26%]
Pressure (altimeter): 29.97 inches Hg (1015.0 mb)
Winds: from the E (90 degrees) at 14 MPH (12 knots; 6.2 m/s)
Visibility: 6 or more miles (10+ km)
Ceiling: ceiling and visibility are OK
Clouds: unknown
Weather: no significant weather observed at this time

METAR text: GGOV 221000Z 09009KT CAVOK 22/02 Q1015 NOSIG
Conditions at: GGOV (BISSAU (CIV/MIL), GW) observed 1000 UTC 22 January 2019
Temperature: 22.0°C (72°F)
Dewpoint: 2.0°C (36°F) [RH = 27%]
Pressure (altimeter): 29.97 inches Hg (1015.0 mb)
Winds: from the E (90 degrees) at 10 MPH (9 knots; 4.6 m/s)
Visibility: 6 or more miles (10+ km)
Ceiling: ceiling and visibility are OK
Clouds: unknown
Weather: no significant weather observed at this time

METAR text: GGOV 220900Z 04009KT CAVOK 19/03 Q1015 NOSIG
Conditions at: GGOV (BISSAU (CIV/MIL), GW) observed 0900 UTC 22 January 2019
Temperature: 19.0°C (66°F)
Dewpoint: 3.0°C (37°F) [RH = 34%]
Pressure (altimeter): 29.97 inches Hg (1015.0 mb)
Winds: from the NE (40 degrees) at 10 MPH (9 knots; 4.6 m/s)
Visibility: 6 or more miles (10+ km)
Ceiling: ceiling and visibility are OK
Clouds: unknown
Weather: no significant weather observed at this time

Forecast for: GGOV (BISSAU (CIV/MIL), GW)
Text: TAF GGOV 231700Z 2318/2418 01008KT CAVOK
Forecast period: 1800 UTC 23 January 2019 to 1800 UTC 24 January 2019
Forecast type: FROM: standard forecast or significant change
Winds: from the N (10 degrees) at 9 MPH (8 knots; 4.1 m/s)
Visibility: 6 or more miles 10+ km)
Ceiling: unknown
Clouds: missing
Weather: NSW  (no significant weather)